Time;durP1;ratioP1;P1;durP2;ratioP2;P2;SDS_P1;SDS_P2;PMS_P1;PMS_P2;Temp;Humidity;BMP_temperature;BMP_pressure;BME280_temperature;BME280_humidity;BME280_pressure;Samples;Min_cycle;Max_cycle;Signal;HPM_P1;HPM_P2
2022/06/18 00:00:40;;;;;;;5.13;1.80;;;;;;;25.12;45.18;101694.22;5073692;28;20027;-70
2022/06/18 00:03:05;;;;;;;6.63;2.00;;;;;;;25.12;45.03;101698.72;5073208;28;20028;-70
2022/06/18 00:05:33;;;;;;;3.72;1.80;;;;;;;25.11;45.20;101692.53;5073575;28;20028;-70
2022/06/18 00:08:02;;;;;;;4.32;2.10;;;;;;;25.13;45.13;101692.41;5073639;28;20031;-70
2022/06/18 00:10:30;;;;;;;3.42;1.88;;;;;;;25.11;45.07;101692.53;5072615;28;20423;-70
2022/06/18 00:15:51;;;;;;;6.40;1.85;;;;;;;25.10;45.38;101690.03;5074030;28;20086;-70
2022/06/18 00:18:16;;;;;;;4.60;2.17;;;;;;;25.10;45.11;101687.34;5072690;28;20027;-71
2022/06/18 00:20:42;;;;;;;4.25;1.95;;;;;;;25.09;45.17;101681.19;5073733;28;20099;-70
2022/06/18 00:23:14;;;;;;;4.95;1.70;;;;;;;25.09;45.00;101686.53;5073392;28;20099;-71
2022/06/18 00:25:44;;;;;;;3.22;1.80;;;;;;;25.07;45.02;101683.19;5072762;28;20028;-70
2022/06/18 00:28:16;;;;;;;5.57;1.90;;;;;;;25.08;45.47;101687.50;5073068;28;20047;-70
2022/06/18 00:30:42;;;;;;;6.75;2.20;;;;;;;25.08;45.45;101686.69;5073357;28;20111;-70
2022/06/18 00:33:08;;;;;;;4.30;1.60;;;;;;;25.07;45.41;101679.66;5071956;28;20029;-70
2022/06/18 00:35:34;;;;;;;4.55;2.03;;;;;;;25.07;45.33;101685.84;5073169;28;20020;-70
2022/06/18 00:38:00;;;;;;;3.63;1.80;;;;;;;25.06;45.21;101684.16;5073108;28;20099;-70
2022/06/18 00:40:36;;;;;;;4.40;1.70;;;;;;;25.06;45.19;101680.66;5071827;28;20028;-70
2022/06/18 00:43:25;;;;;;;6.25;1.90;;;;;;;25.06;45.19;101681.50;5073042;28;20443;-70
2022/06/18 00:46:32;;;;;;;3.60;1.85;;;;;;;25.05;45.23;101682.47;5072298;28;20113;-70
2022/06/18 00:49:15;;;;;;;4.32;1.88;;;;;;;25.05;45.46;101685.13;5072107;28;20411;-70
2022/06/18 00:51:52;;;;;;;4.40;1.90;;;;;;;25.05;45.47;101678.97;5072871;28;20035;-70
2022/06/18 00:54:33;;;;;;;3.50;1.75;;;;;;;25.04;45.48;101672.81;5071873;28;20020;-70
2022/06/18 00:57:20;;;;;;;4.70;2.17;;;;;;;25.03;45.22;101673.78;5072914;28;20035;-70
2022/06/18 00:59:53;;;;;;;5.28;2.15;;;;;;;25.03;45.24;101670.31;5072224;28;20038;-70
2022/06/18 01:02:28;;;;;;;4.25;2.00;;;;;;;25.02;45.25;101672.09;5072659;28;20021;-70
2022/06/18 01:04:53;;;;;;;3.90;1.88;;;;;;;25.02;45.62;101677.44;5072847;28;20483;-70
2022/06/18 01:07:37;;;;;;;3.72;1.90;;;;;;;25.02;45.68;101674.78;5071242;28;20033;-70
2022/06/18 01:10:06;;;;;;;3.17;1.70;;;;;;;25.02;45.44;101671.28;5072913;28;20383;-70
2022/06/18 01:12:32;;;;;;;3.50;1.80;;;;;;;25.00;45.23;101668.75;5072501;28;20024;-70
2022/06/18 01:15:03;;;;;;;4.53;2.00;;;;;;;24.99;45.65;101665.25;5071951;28;20376;-70
2022/06/18 01:17:30;;;;;;;5.70;2.20;;;;;;;25.00;45.62;101663.44;5072370;28;20078;-70
2022/06/18 01:19:59;;;;;;;4.28;2.05;;;;;;;24.99;45.68;101665.25;5072572;28;20427;-70
2022/06/18 01:22:36;;;;;;;3.05;1.70;;;;;;;24.99;45.65;101662.59;5071624;28;20082;-70
2022/06/18 01:25:05;;;;;;;5.00;2.00;;;;;;;24.99;45.56;101657.25;5072639;28;20120;-70
2022/06/18 01:27:33;;;;;;;3.72;1.80;;;;;;;24.98;45.69;101650.25;5071420;28;20037;-70
2022/06/18 01:29:58;;;;;;;4.63;2.22;;;;;;;24.97;45.39;101656.56;5072422;28;20534;-70
2022/06/18 01:32:24;;;;;;;3.65;1.88;;;;;;;24.96;45.58;101654.91;5072138;28;20036;-70
2022/06/18 01:34:50;;;;;;;3.90;1.92;;;;;;;24.97;45.46;101663.72;5071885;28;20021;-70
2022/06/18 01:37:16;;;;;;;6.50;2.10;;;;;;;24.96;45.90;101660.22;5072313;28;20428;-70
2022/06/18 01:39:43;;;;;;;4.47;1.92;;;;;;;24.97;45.96;101671.72;5072644;28;20023;-70
2022/06/18 01:42:16;;;;;;;3.75;1.83;;;;;;;24.95;45.91;101663.88;5071301;28;20438;-70
2022/06/18 01:44:53;;;;;;;5.75;2.30;;;;;;;24.94;45.98;101659.56;5074485;28;20025;-70
2022/06/18 01:47:38;;;;;;;3.97;1.90;;;;;;;24.95;45.62;101663.88;5076405;28;20066;-70
2022/06/18 01:50:21;;;;;;;5.10;1.90;;;;;;;24.94;45.76;101654.22;5075615;28;20550;-70
2022/06/18 01:52:53;;;;;;;3.53;1.92;;;;;;;24.92;46.03;101656.19;5076139;28;20112;-70
2022/06/18 01:55:24;;;;;;;3.80;1.95;;;;;;;24.94;45.58;101658.69;5075866;28;20025;-70
2022/06/18 01:57:54;;;;;;;5.28;1.70;;;;;;;24.91;45.96;101654.53;5075883;28;20021;-70
2022/06/18 02:00:23;;;;;;;4.85;1.90;;;;;;;24.92;46.22;101653.50;5076218;28;20075;-70
2022/06/18 02:02:50;;;;;;;3.28;1.88;;;;;;;24.92;45.87;101655.34;5075400;28;20099;-70
2022/06/18 02:05:16;;;;;;;4.82;1.90;;;;;;;24.91;45.74;101651.84;5075778;28;20029;-70
2022/06/18 02:07:44;;;;;;;4.55;2.00;;;;;;;24.90;46.19;101652.84;5075956;28;20025;-70
2022/06/18 02:10:18;;;;;;;4.05;1.90;;;;;;;24.89;46.12;101651.16;5075196;28;20052;-70
2022/06/18 02:12:44;;;;;;;3.53;1.88;;;;;;;24.90;46.12;101650.16;5075809;28;20472;-70
2022/06/18 02:15:19;;;;;;;3.05;1.90;;;;;;;24.89;45.84;101648.47;5075615;28;20107;-70
2022/06/18 02:17:44;;;;;;;4.00;1.85;;;;;;;24.89;46.06;101645.81;5075075;28;20049;-70
2022/06/18 02:20:18;;;;;;;3.85;2.00;;;;;;;24.88;46.09;101640.63;5075370;28;20105;-70
2022/06/18 02:22:50;;;;;;;10.75;2.15;;;;;;;24.88;46.16;101637.97;5075976;28;20028;-70
2022/06/18 02:25:19;;;;;;;4.25;1.85;;;;;;;24.87;46.17;101647.78;5074740;28;20063;-70
2022/06/18 02:27:45;;;;;;;4.90;1.90;;;;;;;24.87;46.17;101641.63;5075062;28;20063;-70
2022/06/18 02:30:18;;;;;;;5.88;1.85;;;;;;;24.86;46.13;101651.44;5075499;28;20037;-70
2022/06/18 02:32:49;;;;;;;3.95;2.00;;;;;;;24.85;45.82;101652.44;5074450;28;20050;-70
2022/06/18 02:35:15;;;;;;;4.35;1.80;;;;;;;24.85;45.71;101644.44;5075113;28;20482;-70
2022/06/18 02:37:42;;;;;;;4.85;2.08;;;;;;;24.85;45.76;101641.78;5075365;28;20021;-70
2022/06/18 02:40:18;;;;;;;4.68;2.10;;;;;;;24.85;45.85;101647.13;5074757;28;20024;-70
2022/06/18 02:42:44;;;;;;;6.35;2.55;;;;;;;24.84;45.79;101644.59;5075591;28;20028;-70
2022/06/18 02:45:10;;;;;;;5.78;2.22;;;;;;;24.84;46.20;101642.75;5074114;28;20020;-70
2022/06/18 02:47:35;;;;;;;4.10;1.88;;;;;;;24.83;45.70;101643.75;5075504;28;20107;-70
2022/06/18 02:50:05;;;;;;;5.32;2.10;;;;;;;24.83;45.84;101641.06;5075515;28;20021;-70
2022/06/18 02:52:42;;;;;;;4.55;2.05;;;;;;;24.83;45.89;101641.06;5074144;28;20373;-70
2022/06/18 02:55:25;;;;;;;3.65;1.88;;;;;;;24.82;46.18;101639.41;5075006;28;20025;-70
2022/06/18 02:57:55;;;;;;;4.68;2.20;;;;;;;24.81;45.98;101643.88;5074944;28;20020;-70
2022/06/18 03:00:20;;;;;;;5.20;2.13;;;;;;;24.81;45.77;101632.41;5074075;28;20379;-70
2022/06/18 03:02:46;;;;;;;5.05;1.98;;;;;;;24.80;45.84;101639.56;5075192;28;20092;-70
2022/06/18 03:05:27;;;;;;;4.13;1.98;;;;;;;24.80;46.24;101641.38;5074759;28;20491;-70
2022/06/18 03:07:52;;;;;;;3.10;1.98;;;;;;;24.80;46.19;101628.91;5074220;28;20074;-70
2022/06/18 03:13:03;;;;;;;3.63;1.95;;;;;;;24.79;45.88;101640.53;5074167;28;20396;-70
2022/06/18 03:15:31;;;;;;;4.78;2.00;;;;;;;24.78;45.76;101644.22;5074405;28;20498;-70
2022/06/18 03:17:58;;;;;;;4.20;2.28;;;;;;;24.78;46.26;101640.69;5074895;28;20024;-70
2022/06/18 03:20:34;;;;;;;5.82;2.30;;;;;;;24.78;46.07;101644.22;5073652;28;20029;-70
2022/06/18 03:23:00;;;;;;;3.78;2.00;;;;;;;24.76;46.09;101646.16;5074501;28;20024;-70
2022/06/18 03:25:26;;;;;;;3.95;2.10;;;;;;;24.77;46.22;101647.03;5074291;28;20024;-70
2022/06/18 03:27:51;;;;;;;4.13;2.10;;;;;;;24.76;45.92;101646.16;5073558;28;20049;-70
2022/06/18 03:30:19;;;;;;;3.30;1.97;;;;;;;24.76;46.22;101648.84;5074225;28;20483;-70
2022/06/18 03:32:44;;;;;;;3.70;2.05;;;;;;;24.77;46.28;101649.69;5074323;28;20289;-70
2022/06/18 03:35:10;;;;;;;4.07;2.40;;;;;;;24.75;46.21;101644.50;5073219;28;20043;-70
2022/06/18 03:37:44;;;;;;;4.20;2.15;;;;;;;24.74;45.96;101647.31;5074446;28;20036;-70
2022/06/18 03:40:12;;;;;;;4.13;2.20;;;;;;;24.74;46.21;101648.16;5074002;28;20056;-70
2022/06/18 03:42:37;;;;;;;6.40;2.30;;;;;;;24.73;45.94;101643.81;5073446;28;20078;-70
2022/06/18 03:45:03;;;;;;;4.30;2.10;;;;;;;24.74;45.92;101647.31;5074197;28;20419;-70
2022/06/18 03:47:28;;;;;;;3.20;1.83;;;;;;;24.74;45.96;101650.00;5073850;28;20025;-70
2022/06/18 03:49:53;;;;;;;4.70;2.13;;;;;;;24.72;46.34;101651.94;5073201;28;20471;-70
2022/06/18 03:52:19;;;;;;;4.00;2.22;;;;;;;24.73;46.37;101646.47;5073527;28;20032;-70
2022/06/18 03:54:47;;;;;;;4.10;2.30;;;;;;;24.72;46.46;101650.16;5074066;28;20028;-70
2022/06/18 03:57:17;;;;;;;4.35;1.92;;;;;;;24.72;46.41;101646.63;5072836;28;20277;-70
2022/06/18 03:59:42;;;;;;;3.75;2.13;;;;;;;24.71;45.96;101645.78;5073998;28;20093;-70
2022/06/18 04:02:09;;;;;;;4.60;2.42;;;;;;;24.71;46.31;101643.13;5073298;28;20468;-70
2022/06/18 04:04:34;;;;;;;5.60;2.40;;;;;;;24.70;45.94;101648.59;5073695;28;20444;-70
2022/06/18 04:07:00;;;;;;;4.03;2.30;;;;;;;24.71;46.06;101639.63;5073470;28;20056;-70
2022/06/18 04:09:25;;;;;;;5.10;2.30;;;;;;;24.70;46.31;101641.44;5072188;28;20028;-70
2022/06/18 04:11:50;;;;;;;5.57;2.57;;;;;;;24.70;45.98;101637.94;5073621;28;20055;-70
2022/06/18 04:14:16;;;;;;;5.37;2.40;;;;;;;24.69;46.09;101626.44;5073135;28;20273;-70
2022/06/18 04:16:41;;;;;;;4.22;2.58;;;;;;;24.70;46.29;101629.94;5072854;28;20273;-70
2022/06/18 04:19:08;;;;;;;4.97;2.50;;;;;;;24.68;46.06;101623.94;5073406;28;20031;-70
2022/06/18 04:21:33;;;;;;;3.85;2.25;;;;;;;24.68;46.17;101630.09;5073623;28;20095;-70
2022/06/18 04:23:58;;;;;;;5.67;2.50;;;;;;;24.68;46.21;101635.44;5072655;28;20474;-70
2022/06/18 04:26:24;;;;;;;4.32;2.50;;;;;;;24.68;46.49;101635.44;5073135;28;20277;-70
2022/06/18 04:28:49;;;;;;;3.70;2.03;;;;;;;24.68;46.17;101631.94;5073022;28;20127;-70
2022/06/18 04:31:15;;;;;;;5.10;2.47;;;;;;;24.68;46.16;101640.75;5072068;28;20498;-70
2022/06/18 04:33:41;;;;;;;4.20;2.15;;;;;;;24.68;46.13;101637.25;5073051;28;20375;-69
2022/06/18 04:36:06;;;;;;;5.90;2.58;;;;;;;24.67;46.30;101633.72;5073292;28;20074;-70
2022/06/18 04:38:32;;;;;;;4.53;2.60;;;;;;;24.67;46.47;101638.25;5072131;28;20025;-70
2022/06/18 04:41:00;;;;;;;3.80;2.37;;;;;;;24.67;46.20;101632.91;5073019;28;20023;-70
2022/06/18 04:43:25;;;;;;;3.65;2.22;;;;;;;24.66;46.19;101636.56;5072628;28;20273;-70
2022/06/18 04:45:50;;;;;;;4.18;2.50;;;;;;;24.66;46.56;101633.88;5071963;28;20472;-70
2022/06/18 04:48:16;;;;;;;6.50;2.75;;;;;;;24.66;46.50;101640.06;5072392;28;20020;-70
2022/06/18 04:50:41;;;;;;;3.87;2.37;;;;;;;24.66;46.13;101633.88;5073049;28;20032;-70
2022/06/18 04:53:09;;;;;;;4.93;2.58;;;;;;;24.66;46.32;101632.06;5072173;28;20285;-70
2022/06/18 04:55:35;;;;;;;5.38;2.60;;;;;;;24.66;46.38;101633.88;5072642;28;20025;-70
2022/06/18 04:58:00;;;;;;;4.47;2.65;;;;;;;24.66;46.27;101639.22;5072895;28;20024;-70
2022/06/18 05:00:26;;;;;;;4.75;2.60;;;;;;;24.66;46.59;101636.56;5071560;28;20034;-70
2022/06/18 05:02:51;;;;;;;5.03;2.50;;;;;;;24.66;46.33;101639.22;5072477;28;20029;-70
2022/06/18 05:05:25;;;;;;;5.45;2.50;;;;;;;24.65;46.37;101635.72;5072528;28;20031;-70
2022/06/18 05:07:51;;;;;;;4.18;2.30;;;;;;;24.65;46.45;101635.72;5072733;28;20111;-70
2022/06/18 05:10:17;;;;;;;4.72;2.72;;;;;;;24.67;46.71;101635.56;5072222;28;20056;-70
2022/06/18 05:12:43;;;;;;;6.45;2.50;;;;;;;24.65;46.54;101630.41;5071485;28;20025;-70
2022/06/18 05:15:11;;;;;;;5.18;2.42;;;;;;;24.66;46.37;101631.22;5071814;28;20028;-70
2022/06/18 05:17:39;;;;;;;7.82;2.80;;;;;;;24.65;46.34;101630.41;5072338;28;20037;-71
2022/06/18 05:20:05;;;;;;;6.03;2.47;;;;;;;24.65;46.32;101638.38;5071561;28;20025;-70
2022/06/18 05:22:30;;;;;;;6.85;2.88;;;;;;;24.65;46.72;101642.88;5072272;28;20029;-70
2022/06/18 05:24:56;;;;;;;4.63;2.50;;;;;;;24.66;46.27;101639.22;5072557;28;20468;-70
2022/06/18 05:27:31;;;;;;;5.07;2.47;;;;;;;24.65;46.35;101649.03;5071128;28;20400;-70
2022/06/18 05:29:57;;;;;;;5.25;2.60;;;;;;;24.66;46.29;101649.88;5072259;28;20028;-70
2022/06/18 05:32:34;;;;;;;7.43;2.90;;;;;;;24.66;46.37;101649.88;5072042;28;20376;-70
2022/06/18 05:35:06;;;;;;;4.50;2.75;;;;;;;24.66;46.26;101649.88;5071628;28;20079;-70
2022/06/18 05:37:35;;;;;;;4.82;2.45;;;;;;;24.67;46.71;101654.22;5071884;28;20023;-71
2022/06/18 05:40:03;;;;;;;6.93;2.97;;;;;;;24.66;46.75;101663.19;5072132;28;20032;-70
2022/06/18 05:42:28;;;;;;;4.72;2.50;;;;;;;24.66;46.73;101661.41;5071034;28;20028;-70
2022/06/18 05:44:56;;;;;;;5.10;2.72;;;;;;;24.66;46.33;101657.88;5072363;28;20017;-70
2022/06/18 05:47:26;;;;;;;7.18;2.78;;;;;;;24.66;46.49;101664.06;5071674;28;20036;-70
2022/06/18 05:49:52;;;;;;;5.28;2.70;;;;;;;24.66;46.27;101661.41;5071376;28;20058;-70
2022/06/18 05:52:18;;;;;;;4.97;2.92;;;;;;;24.66;46.69;101664.06;5071716;28;20032;-70
2022/06/18 05:54:44;;;;;;;5.20;2.83;;;;;;;24.65;46.63;101654.38;5071064;28;20379;-70
2022/06/18 05:57:09;;;;;;;4.20;2.60;;;;;;;24.66;46.21;101653.41;5071584;28;20021;-70
2022/06/18 05:59:38;;;;;;;6.00;2.70;;;;;;;24.66;46.32;101656.06;5072370;28;20029;-70
2022/06/18 06:02:04;;;;;;;6.60;2.70;;;;;;;24.67;46.81;101655.06;5071062;28;20571;-70
2022/06/18 06:04:30;;;;;;;6.90;2.87;;;;;;;24.67;46.43;101656.91;5071666;28;20059;-70
2022/06/18 06:06:56;;;;;;;5.03;2.38;;;;;;;24.67;46.87;101647.06;5071988;28;20269;-70
2022/06/18 06:12:10;;;;;;;6.40;3.00;;;;;;;24.67;46.64;101640.91;5071568;28;20052;-70
2022/06/18 06:14:40;;;;;;;5.30;2.83;;;;;;;24.69;46.43;101644.25;5072019;28;20103;-70
2022/06/18 06:17:15;;;;;;;5.72;2.70;;;;;;;24.68;46.86;101640.75;5071056;28;20537;-72
2022/06/18 06:19:44;;;;;;;6.03;2.53;;;;;;;24.69;46.93;101639.78;5071898;28;20024;-71
2022/06/18 06:22:09;;;;;;;6.32;3.03;;;;;;;24.69;46.43;101636.25;5070842;28;20043;-71
2022/06/18 06:24:34;;;;;;;4.47;2.60;;;;;;;24.68;46.91;101640.75;5071291;28;20415;-72
2022/06/18 06:27:02;;;;;;;6.13;3.03;;;;;;;24.68;46.90;101643.41;5071514;28;20282;-72
2022/06/18 06:29:27;;;;;;;7.05;2.60;;;;;;;24.69;46.50;101639.78;5071428;28;20284;-71
2022/06/18 06:31:52;;;;;;;6.25;2.80;;;;;;;24.68;46.37;101638.09;5073116;28;20021;-69
2022/06/18 06:34:18;;;;;;;6.37;2.47;;;;;;;24.69;46.62;101638.91;5074745;28;20483;-71
2022/06/18 06:36:43;;;;;;;5.03;2.77;;;;;;;24.70;46.44;101640.59;5075258;28;20304;-71
2022/06/18 06:39:08;;;;;;;6.67;3.00;;;;;;;24.70;46.88;101640.59;5074227;28;20275;-71
2022/06/18 06:41:34;;;;;;;7.40;2.93;;;;;;;24.70;46.48;101646.75;5075298;28;20269;-70
2022/06/18 06:43:59;;;;;;;7.53;2.70;;;;;;;24.70;46.60;101640.59;5074425;28;20269;-69
2022/06/18 06:46:25;;;;;;;9.60;2.80;;;;;;;24.70;46.39;101637.94;5074797;28;20029;-69
2022/06/18 06:48:50;;;;;;;5.90;2.65;;;;;;;24.70;46.47;101638.78;5075076;28;20027;-69
2022/06/18 06:51:19;;;;;;;6.90;2.63;;;;;;;24.71;46.29;101634.31;5074203;28;20456;-68
2022/06/18 06:53:45;;;;;;;8.38;2.80;;;;;;;24.71;46.63;101636.97;5075183;28;20024;-69
2022/06/18 06:58:57;;;;;;;7.05;2.72;;;;;;;24.71;46.77;101637.78;5074551;28;20085;-72
2022/06/18 07:01:23;;;;;;;5.70;3.20;;;;;;;24.71;47.06;101636.97;5074491;28;20029;-71
2022/06/18 07:03:49;;;;;;;7.22;3.38;;;;;;;24.69;47.35;101639.78;5074734;28;20512;-72
2022/06/18 07:06:16;;;;;;;6.25;3.22;;;;;;;24.69;47.47;101641.59;5073852;28;20353;-72
2022/06/18 07:08:44;;;;;;;7.00;3.75;;;;;;;24.68;47.80;101647.91;5074864;28;20025;-72
2022/06/18 07:11:10;;;;;;;7.78;3.55;;;;;;;24.67;47.21;101646.22;5074437;28;20039;-72
2022/06/18 07:13:36;;;;;;;6.22;3.35;;;;;;;24.66;47.22;101647.22;5073967;28;20028;-72
2022/06/18 07:16:05;;;;;;;5.75;3.33;;;;;;;24.65;47.70;101640.22;5074502;28;20021;-71
2022/06/18 07:18:33;;;;;;;6.40;3.42;;;;;;;24.64;47.95;101639.38;5074416;28;20086;-72
2022/06/18 07:21:00;;;;;;;6.85;3.53;;;;;;;24.64;48.18;101642.03;5073661;28;20070;-72
2022/06/18 07:23:29;;;;;;;6.68;4.13;;;;;;;24.65;48.18;101641.06;5074233;28;20032;-71
2022/06/18 07:25:54;;;;;;;7.95;3.92;;;;;;;24.63;47.87;101640.38;5074397;28;20033;-72
2022/06/18 07:28:20;;;;;;;6.78;3.67;;;;;;;24.64;48.14;101636.69;5073037;28;20044;-72
2022/06/18 07:30:46;;;;;;;7.75;3.60;;;;;;;24.63;48.08;101643.03;5074325;28;20056;-72
2022/06/18 07:33:17;;;;;;;6.05;3.63;;;;;;;24.63;48.09;101635.88;5073452;28;20383;-72
2022/06/18 07:35:43;;;;;;;8.20;4.20;;;;;;;24.64;48.05;101634.03;5074329;28;20108;-78
2022/06/18 07:38:08;;;;;;;7.60;3.97;;;;;;;24.64;47.83;101634.03;5074180;28;20103;-69
2022/06/18 07:40:44;;;;;;;7.22;4.00;;;;;;;24.63;48.01;101633.19;5073292;28;20020;-68
2022/06/18 07:43:40;;;;;;;8.02;3.92;;;;;;;24.65;48.52;101627.72;5073549;28;20081;-69
2022/06/18 07:46:07;;;;;;;7.43;3.40;;;;;;;24.63;48.24;101627.88;5057718;28;20040;-69
2022/06/18 07:48:33;;;;;;;7.43;3.50;;;;;;;24.66;47.95;101625.88;5073080;28;20381;-69
2022/06/18 07:50:59;;;;;;;6.63;3.33;;;;;;;24.64;47.83;101626.03;5073972;28;20077;-70
2022/06/18 07:53:25;;;;;;;8.27;3.83;;;;;;;24.67;47.87;101632.91;5073733;28;20539;-70
2022/06/18 07:55:52;;;;;;;9.00;4.20;;;;;;;24.66;47.84;101621.41;5073059;28;20051;-70
2022/06/18 07:58:17;;;;;;;7.68;3.80;;;;;;;24.67;47.81;101622.25;5073743;28;20028;-70
2022/06/18 08:00:43;;;;;;;7.45;3.92;;;;;;;24.68;47.99;101623.94;5074005;28;20021;-72
2022/06/18 08:03:11;;;;;;;7.68;3.95;;;;;;;24.69;47.98;101620.25;5072680;28;20020;-71
2022/06/18 08:05:37;;;;;;;7.32;4.03;;;;;;;24.68;48.48;101614.09;5073657;28;20411;-71
2022/06/18 08:08:03;;;;;;;6.95;3.58;;;;;;;24.69;48.41;101612.28;5073545;28;20031;-71
2022/06/18 08:10:30;;;;;;;8.43;3.85;;;;;;;24.69;48.16;101612.28;5072639;28;20024;-71
2022/06/18 08:12:55;;;;;;;8.25;3.90;;;;;;;24.70;48.53;101608.63;5073639;28;20040;-71
2022/06/18 08:15:23;;;;;;;8.23;4.37;;;;;;;24.71;48.23;101608.47;5072620;28;20028;-71
2022/06/18 08:17:49;;;;;;;9.50;4.40;;;;;;;24.71;48.18;101603.16;5072927;28;20656;-69
2022/06/18 08:20:14;;;;;;;7.13;4.25;;;;;;;24.72;48.81;101606.63;5073157;28;20035;-67
2022/06/18 08:22:44;;;;;;;9.13;4.10;;;;;;;24.72;48.90;101601.31;5072542;28;20577;-66
2022/06/18 08:25:12;;;;;;;8.10;4.00;;;;;;;24.74;48.11;101605.50;5072976;28;20272;-67
2022/06/18 08:27:39;;;;;;;6.63;3.58;;;;;;;24.75;48.03;101598.34;5073213;28;20051;-67
2022/06/18 08:30:05;;;;;;;6.05;3.22;;;;;;;24.76;47.95;101592.88;5072840;28;20090;-66
2022/06/18 08:32:30;;;;;;;5.43;3.17;;;;;;;24.76;47.47;101587.53;5072792;28;20021;-66
2022/06/18 08:34:56;;;;;;;6.35;3.55;;;;;;;24.77;47.25;101591.06;5073120;28;20039;-66
2022/06/18 08:37:21;;;;;;;8.60;3.90;;;;;;;24.78;47.33;101584.72;5071918;28;20024;-67
2022/06/18 08:39:47;;;;;;;6.40;2.95;;;;;;;24.80;47.40;101588.06;5073150;28;20025;-68
2022/06/18 08:42:22;;;;;;;6.70;3.35;;;;;;;24.80;47.17;101582.72;5071559;28;20027;-67
2022/06/18 08:44:59;;;;;;;7.45;3.50;;;;;;;24.81;47.15;101589.75;5070886;28;20043;-68
2022/06/18 08:47:58;;;;;;;5.63;3.22;;;;;;;24.82;47.18;101588.78;5072732;28;20139;-67
2022/06/18 08:50:57;;;;;;;8.65;3.25;;;;;;;24.82;47.62;101591.44;5070168;28;20139;-67
2022/06/18 08:53:34;;;;;;;6.55;3.30;;;;;;;24.84;47.18;101588.63;5072308;28;20039;-66
2022/06/18 08:56:08;;;;;;;10.40;3.17;;;;;;;24.85;47.59;101592.94;5072648;28;20056;-68
2022/06/18 08:58:39;;;;;;;;;;;;;;;24.86;47.34;101587.47;5072353;28;20115;-67
2022/06/18 09:01:22;;;;;;;6.28;3.05;;;;;;;24.86;47.21;101592.78;5072786;28;19912;-67
2022/06/18 09:04:00;;;;;;;6.93;3.17;;;;;;;24.87;47.26;101585.66;5072427;28;20572;-68
2022/06/18 09:06:51;;;;;;;4.88;3.10;;;;;;;24.88;47.05;101587.31;5071607;28;20056;-68
2022/06/18 09:09:35;;;;;;;5.70;2.90;;;;;;;24.89;47.21;101597.00;5072001;28;20480;-68
2022/06/18 09:12:04;;;;;;;5.45;3.33;;;;;;;24.90;46.87;101590.69;5071822;28;20039;-68
2022/06/18 09:14:54;;;;;;;5.93;3.17;;;;;;;24.90;47.13;101598.69;5072076;28;20034;-66
2022/06/18 09:17:28;;;;;;;7.72;3.00;;;;;;;24.92;47.20;101594.03;5072408;28;20048;-67
2022/06/18 09:20:09;;;;;;;6.82;3.30;;;;;;;24.92;46.83;101591.34;5071748;28;20027;-67
2022/06/18 09:22:41;;;;;;;5.85;2.95;;;;;;;24.94;46.82;101597.38;5052689;28;20040;-67
2022/06/18 09:25:17;;;;;;;6.00;3.38;;;;;;;24.93;47.35;101596.53;5052235;28;20158;-67
2022/06/18 09:27:55;;;;;;;5.47;2.80;;;;;;;24.95;47.31;101589.22;5051412;28;20052;-67
2022/06/18 09:30:30;;;;;;;8.35;3.08;;;;;;;24.95;47.10;101585.72;5050462;28;20120;-66
2022/06/18 09:33:08;;;;;;;8.50;3.00;;;;;;;24.96;47.32;101592.75;5051749;28;20036;-66
2022/06/18 09:35:52;;;;;;;5.72;2.90;;;;;;;24.97;46.78;101597.91;5052566;28;20021;-67
2022/06/18 09:38:43;;;;;;;6.18;3.47;;;;;;;24.96;47.10;101590.91;5052152;28;20029;-67
2022/06/18 09:41:37;;;;;;;4.70;2.80;;;;;;;24.99;46.79;101592.41;5033316;28;20066;-67
2022/06/18 09:44:35;;;;;;;5.23;2.90;;;;;;;24.98;46.96;101582.75;5009021;28;20033;-67
2022/06/18 09:47:10;;;;;;;4.82;2.92;;;;;;;25.01;46.78;101582.44;5051344;28;20523;-67
2022/06/18 09:49:39;;;;;;;6.93;3.00;;;;;;;25.01;47.17;101582.44;5052153;28;20037;-66
2022/06/18 09:52:24;;;;;;;5.97;3.10;;;;;;;25.01;47.33;101574.47;5058693;28;20534;-65
2022/06/18 09:54:57;;;;;;;8.20;3.20;;;;;;;25.03;46.95;101571.63;5060462;28;20040;-67
2022/06/18 09:57:29;;;;;;;5.60;2.90;;;;;;;25.03;47.03;101571.63;5070811;28;20377;-66
2022/06/18 10:00:03;;;;;;;4.70;3.08;;;;;;;25.04;47.18;101573.28;5052057;28;20028;-67
2022/06/18 10:02:31;;;;;;;6.40;3.20;;;;;;;25.04;47.38;101568.81;5051259;28;20028;-67
2022/06/18 10:07:48;;;;;;;6.07;3.20;;;;;;;25.06;47.42;101569.50;5055556;28;20083;-66
2022/06/18 10:10:17;;;;;;;6.82;3.17;;;;;;;25.07;47.57;101559.66;5054802;28;20021;-67
2022/06/18 10:12:46;;;;;;;6.15;3.30;;;;;;;25.07;47.30;101560.50;5055823;28;20045;-67
2022/06/18 10:15:17;;;;;;;4.80;3.05;;;;;;;25.07;47.42;101559.66;5054849;28;20025;-66
2022/06/18 10:17:57;;;;;;;5.65;3.38;;;;;;;25.09;47.13;101565.69;5055974;28;20025;-67
2022/06/18 10:20:50;;;;;;;5.15;3.00;;;;;;;25.09;47.55;101565.69;5055398;28;20541;-69
2022/06/18 10:23:36;;;;;;;5.25;3.03;;;;;;;25.09;47.63;101563.84;5054691;28;20400;-68
2022/06/18 10:26:13;;;;;;;7.35;3.47;;;;;;;25.10;47.34;101552.22;5055548;28;20112;-67
2022/06/18 10:28:45;;;;;;;5.43;3.35;;;;;;;25.11;47.34;101553.03;5055488;28;20134;-66
2022/06/18 10:31:19;;;;;;;7.45;3.28;;;;;;;25.11;47.35;101551.19;5054458;28;20031;-67
2022/06/18 10:34:06;;;;;;;5.53;3.20;;;;;;;25.12;47.21;101550.22;5055556;28;20021;-66
2022/06/18 10:36:42;;;;;;;5.40;3.10;;;;;;;25.13;47.62;101543.03;5054246;28;20457;-66
2022/06/18 10:39:19;;;;;;;6.32;3.15;;;;;;;25.14;47.68;101550.06;5055421;28;20366;-67
2022/06/18 10:42:03;;;;;;;5.32;3.15;;;;;;;25.15;47.76;101547.25;5055433;28;20036;-66
2022/06/18 10:44:52;;;;;;;6.50;3.47;;;;;;;25.15;47.37;101538.38;5054157;28;20047;-66
2022/06/18 10:47:18;;;;;;;5.57;3.17;;;;;;;25.15;47.46;101528.56;5055098;28;20431;-66
2022/06/18 10:49:47;;;;;;;8.63;3.55;;;;;;;25.16;47.75;101535.56;5055134;28;20025;-66
2022/06/18 10:52:18;;;;;;;6.35;3.40;;;;;;;25.17;47.72;101525.75;5053956;28;20025;-66
2022/06/18 10:54:44;;;;;;;7.25;3.53;;;;;;;25.17;47.79;101529.25;5054991;28;20113;-67
2022/06/18 10:57:21;;;;;;;8.63;3.20;;;;;;;25.19;48.03;101525.59;5053703;28;20048;-67
2022/06/18 10:59:52;;;;;;;5.40;3.38;;;;;;;25.19;47.71;101525.59;5055008;28;20108;-65
2022/06/18 11:02:21;;;;;;;5.10;3.10;;;;;;;25.20;48.01;101527.25;5054376;28;20385;-66
2022/06/18 11:04:56;;;;;;;5.97;3.55;;;;;;;25.20;47.57;101517.44;5054009;28;20389;-66
2022/06/18 11:07:26;;;;;;;5.38;3.20;;;;;;;25.20;47.56;101514.78;5054602;28;20079;-66
2022/06/18 11:09:59;;;;;;;5.97;3.08;;;;;;;25.21;47.82;101516.44;5054875;28;20032;-66
2022/06/18 11:12:34;;;;;;;7.13;3.35;;;;;;;25.23;47.78;101511.78;5052529;28;20037;-66
2022/06/18 11:15:00;;;;;;;7.38;3.13;;;;;;;25.24;47.67;101504.63;5054668;28;20116;-66
2022/06/18 11:17:31;;;;;;;6.13;3.38;;;;;;;25.23;47.54;101501.13;5053671;28;20064;-66
2022/06/18 11:20:23;;;;;;;4.35;2.92;;;;;;;25.24;47.73;101493.97;5053597;28;20025;-66
2022/06/18 11:23:02;;;;;;;6.93;3.13;;;;;;;25.24;47.71;101484.13;5065111;28;20032;-66
2022/06/18 11:25:40;;;;;;;6.05;3.42;;;;;;;25.24;47.55;101484.13;5073303;28;20427;-66
2022/06/18 11:28:30;;;;;;;5.45;3.35;;;;;;;25.26;47.82;101479.47;5073890;28;20052;-65
2022/06/18 11:30:57;;;;;;;6.07;3.40;;;;;;;25.26;47.52;101482.16;5074225;28;20430;-65
2022/06/18 11:33:33;;;;;;;6.30;3.75;;;;;;;25.28;47.81;101476.69;5073015;28;20024;-66
2022/06/18 11:36:27;;;;;;;8.07;4.07;;;;;;;25.28;48.08;101471.34;5074246;28;20039;-65
2022/06/18 11:38:55;;;;;;;7.13;3.00;;;;;;;25.27;47.82;101461.63;5063205;28;20036;-66
2022/06/18 11:41:24;;;;;;;7.70;3.22;;;;;;;25.28;47.97;101464.19;5072761;28;20495;-65
2022/06/18 11:44:10;;;;;;;6.43;3.28;;;;;;;25.28;47.94;101461.50;5074019;28;20040;-65
2022/06/18 11:46:42;;;;;;;6.90;3.90;;;;;;;25.29;47.87;101452.53;5073172;28;20082;-66
2022/06/18 11:49:36;;;;;;;5.15;3.03;;;;;;;25.29;48.15;101454.34;5073795;28;20445;-65
2022/06/18 11:52:17;;;;;;;5.68;3.30;;;;;;;25.30;48.32;101454.19;5071323;28;20033;-65
2022/06/18 11:55:02;;;;;;;5.63;3.20;;;;;;;25.31;48.37;101458.53;5073132;28;20028;-65